Time;durP1;ratioP1;P1;durP2;ratioP2;P2;SDS_P1;SDS_P2;PMS_P1;PMS_P2;Temp;Humidity;BMP_temperature;BMP_pressure;BME280_temperature;BME280_humidity;BME280_pressure;Samples;Min_cycle;Max_cycle;Signal;HPM_P1;HPM_P2
2022/02/28 00:01:12;;;;;;;5.23;3.10;;;;;;;0.92;60.61;100461.78;5050931;28;44605;-76
2022/02/28 00:03:39;;;;;;;4.83;3.43;;;;;;;1.00;60.80;100476.56;5050836;28;41299;-75
2022/02/28 00:06:07;;;;;;;8.97;3.50;;;;;;;0.94;61.41;100463.53;5034892;28;39108;-76
2022/02/28 00:08:35;;;;;;;6.27;4.37;;;;;;;0.96;61.47;100477.44;5052002;28;42362;-76
2022/02/28 00:11:03;;;;;;;8.97;4.20;;;;;;;0.92;61.26;100483.50;5051195;28;43702;-76
2022/02/28 00:13:31;;;;;;;6.67;3.80;;;;;;;0.92;61.62;100478.28;5034498;28;41160;-75
2022/02/28 00:16:00;;;;;;;4.17;3.70;;;;;;;0.90;62.20;100466.97;5052350;28;40025;-75
2022/02/28 00:18:28;;;;;;;6.53;4.40;;;;;;;0.90;62.06;100466.13;5052364;28;41669;-75
2022/02/28 00:20:56;;;;;;;6.80;3.87;;;;;;;0.88;62.33;100473.06;5051167;28;43232;-75
2022/02/28 00:23:24;;;;;;;7.07;4.17;;;;;;;0.86;61.76;100473.09;5034395;28;42871;-76
2022/02/28 00:25:52;;;;;;;6.80;4.60;;;;;;;0.72;62.51;100451.31;5051022;28;38965;-76
2022/02/28 00:28:19;;;;;;;5.57;3.93;;;;;;;0.83;61.89;100483.50;5050816;28;40981;-75
2022/02/28 00:30:47;;;;;;;8.53;3.57;;;;;;;0.80;61.61;100473.06;5051019;28;42799;-75
2022/02/28 00:33:16;;;;;;;6.90;4.63;;;;;;;0.78;61.59;100474.78;5050581;28;41991;-76
2022/02/28 00:35:44;;;;;;;7.77;4.27;;;;;;;0.61;61.56;100458.22;5034260;28;41206;-76
2022/02/28 00:38:12;;;;;;;6.60;3.97;;;;;;;0.74;61.65;100480.88;5033876;28;40595;-75
2022/02/28 00:40:39;;;;;;;5.73;4.20;;;;;;;0.64;61.52;100471.25;5067500;28;41829;-76
2022/02/28 00:43:07;;;;;;;7.53;4.23;;;;;;;0.68;61.42;100478.22;5033743;28;41110;-75
2022/02/28 00:45:34;;;;;;;8.73;4.70;;;;;;;0.65;61.12;100483.44;5034112;28;40248;-75
2022/02/28 00:48:02;;;;;;;6.70;3.60;;;;;;;0.58;61.06;100471.25;5050656;28;42594;-76
2022/02/28 00:50:31;;;;;;;6.80;4.23;;;;;;;0.58;60.88;100477.34;5034176;28;42890;-76
2022/02/28 00:52:59;;;;;;;7.90;4.00;;;;;;;0.46;60.78;100472.06;5033796;28;41120;-75
2022/02/28 00:55:27;;;;;;;5.43;2.87;;;;;;;0.41;60.57;100455.53;5050726;28;39802;-75
2022/02/28 00:57:55;;;;;;;5.17;3.20;;;;;;;0.46;60.55;100481.63;5033683;28;41743;-75
2022/02/28 01:00:23;;;;;;;4.97;3.40;;;;;;;0.25;60.54;100454.59;5050490;28;42792;-75
2022/02/28 01:02:52;;;;;;;7.40;3.83;;;;;;;0.35;60.45;100477.25;5033560;28;42916;-75
2022/02/28 01:05:21;;;;;;;8.47;4.67;;;;;;;0.27;60.73;100471.09;5051906;28;40299;-75
2022/02/28 01:07:50;;;;;;;5.63;3.80;;;;;;;0.24;60.67;100476.31;5033492;28;43270;-75
2022/02/28 01:10:20;;;;;;;5.67;4.20;;;;;;;0.20;60.75;100474.56;5033856;28;42266;-75
2022/02/28 01:12:48;;;;;;;4.83;3.43;;;;;;;-0.02;60.62;100446.66;5033787;28;41193;-75
2022/02/28 01:15:16;;;;;;;9.00;4.77;;;;;;;0.13;60.68;100475.38;5033802;28;39238;-75
2022/02/28 01:17:46;;;;;;;7.23;4.07;;;;;;;0.09;60.77;100468.41;5033460;28;42948;-75
2022/02/28 01:20:15;;;;;;;7.73;3.50;;;;;;;-0.14;60.58;100437.03;5048490;28;41800;-75
2022/02/28 01:22:43;;;;;;;5.57;3.27;;;;;;;-0.01;60.82;100471.84;5070112;28;41533;-75
2022/02/28 01:25:13;;;;;;;8.20;4.83;;;;;;;-0.01;60.97;100467.50;5070678;28;40871;-76
2022/02/28 01:27:41;;;;;;;4.67;3.37;;;;;;;-0.04;61.14;100467.47;5053283;28;41695;-76
2022/02/28 01:30:10;;;;;;;5.53;3.20;;;;;;;-0.11;61.06;100462.22;5053397;28;43981;-75
2022/02/28 01:32:38;;;;;;;5.67;4.20;;;;;;;-0.10;61.29;100464.81;5070220;28;41988;-75
2022/02/28 01:35:08;;;;;;;5.57;3.87;;;;;;;-0.11;61.26;100468.28;5053458;28;40565;-76
2022/02/28 01:37:36;;;;;;;8.30;5.03;;;;;;;-0.12;61.53;100465.66;5038709;28;43812;-76
2022/02/28 01:40:05;;;;;;;5.37;3.37;;;;;;;-0.28;61.62;100440.41;5033479;28;43364;-75
2022/02/28 01:42:34;;;;;;;4.70;3.67;;;;;;;-0.14;61.84;100470.03;5049890;28;43204;-75
2022/02/28 01:45:02;;;;;;;6.80;3.70;;;;;;;-0.19;61.81;100463.91;5050345;28;40193;-76
2022/02/28 01:47:30;;;;;;;4.50;3.97;;;;;;;-0.19;62.07;100461.28;5032997;28;42026;-75
2022/02/28 01:49:59;;;;;;;6.53;3.93;;;;;;;-0.31;61.90;100440.41;5033435;28;42909;-75
2022/02/28 01:52:26;;;;;;;5.00;3.13;;;;;;;-0.19;61.74;100469.09;5049632;28;42366;-75
2022/02/28 01:54:54;;;;;;;5.23;3.43;;;;;;;-0.20;61.85;100467.38;5032632;28;39176;-76
2022/02/28 01:57:22;;;;;;;6.40;3.20;;;;;;;-0.20;61.92;100475.16;5049728;28;42361;-76
2022/02/28 01:59:51;;;;;;;7.40;3.67;;;;;;;-0.22;61.60;100471.69;5032846;28;41371;-76
2022/02/28 02:02:19;;;;;;;7.90;4.70;;;;;;;-0.29;61.66;100459.50;5032998;28;41368;-76
2022/02/28 02:04:49;;;;;;;6.83;4.53;;;;;;;-0.27;61.63;100466.47;5051164;28;40789;-76
2022/02/28 02:07:17;;;;;;;4.23;3.07;;;;;;;-0.37;61.82;100449.88;5032760;28;41721;-75
2022/02/28 02:09:45;;;;;;;7.23;3.73;;;;;;;-0.30;62.13;100457.75;5049695;28;41969;-75
2022/02/28 02:12:13;;;;;;;4.93;3.00;;;;;;;-0.31;62.22;100456.00;5032921;28;40765;-76
2022/02/28 02:14:41;;;;;;;7.30;3.97;;;;;;;-0.32;62.33;100446.47;5066708;28;41130;-75
2022/02/28 02:17:10;;;;;;;4.50;3.53;;;;;;;-0.39;62.10;100430.81;5049481;28;42568;-76
2022/02/28 02:19:39;;;;;;;5.93;3.87;;;;;;;-0.38;62.44;100434.28;5034055;28;42906;-75
2022/02/28 02:22:08;;;;;;;5.67;3.70;;;;;;;-0.48;62.64;100415.13;5036202;28;42376;-76
2022/02/28 02:24:36;;;;;;;4.83;3.07;;;;;;;-0.37;63.07;100429.06;5036583;28;39974;-75
2022/02/28 02:27:05;;;;;;;6.17;3.53;;;;;;;-0.37;63.30;100423.84;5052954;28;42782;-75
2022/02/28 02:29:36;;;;;;;6.17;3.40;;;;;;;-0.37;63.88;100422.97;5036484;28;42750;-76
2022/02/28 02:32:08;;;;;;;6.83;3.50;;;;;;;-0.39;63.44;100429.94;5052733;28;42226;-76
2022/02/28 02:34:36;;;;;;;5.40;3.77;;;;;;;-0.46;63.82;100413.41;5050219;28;40023;-76
2022/02/28 02:37:04;;;;;;;4.90;3.73;;;;;;;-0.39;64.07;100430.81;5052683;28;41729;-76
2022/02/28 02:39:33;;;;;;;5.97;4.10;;;;;;;-0.40;63.38;100441.22;5036288;28;44278;-76
2022/02/28 02:42:02;;;;;;;5.33;2.63;;;;;;;-0.41;63.13;100442.06;5036946;28;42540;-76
2022/02/28 02:44:31;;;;;;;4.57;3.70;;;;;;;-0.56;63.88;100406.38;5056011;28;40237;-76
2022/02/28 02:46:59;;;;;;;7.33;3.63;;;;;;;-0.45;64.18;100429.88;5055948;28;42692;-76
2022/02/28 02:49:38;;;;;;;5.13;3.43;;;;;;;-0.48;64.52;100425.53;5053225;28;43094;-76
2022/02/28 02:52:07;;;;;;;4.93;3.77;;;;;;;-0.48;64.81;100430.72;5054544;28;42474;-76
2022/02/28 02:54:38;;;;;;;8.43;4.50;;;;;;;-0.50;64.22;100435.06;5084878;28;40608;-76
2022/02/28 02:57:06;;;;;;;7.97;4.23;;;;;;;-0.56;64.89;100408.13;5035973;28;41682;-77
2022/02/28 02:59:35;;;;;;;6.17;4.40;;;;;;;-0.50;64.94;100416.00;5034541;28;41683;-75
2022/02/28 03:02:03;;;;;;;6.40;3.67;;;;;;;-0.64;64.70;100402.88;5035747;28;43256;-76
2022/02/28 03:04:31;;;;;;;7.03;3.90;;;;;;;-0.50;64.52;100432.47;5035893;28;39961;-75
2022/02/28 03:06:58;;;;;;;5.17;3.67;;;;;;;-0.52;64.33;100428.97;5052632;28;42777;-77
2022/02/28 03:09:26;;;;;;;5.23;3.87;;;;;;;-0.53;64.22;100423.75;5052287;28;42814;-76
2022/02/28 03:11:55;;;;;;;7.50;4.07;;;;;;;-0.55;64.09;100433.28;5052567;28;42043;-75
2022/02/28 03:14:23;;;;;;;5.10;3.57;;;;;;;-0.62;63.80;100427.19;5035766;28;39059;-75
2022/02/28 03:16:51;;;;;;;6.27;3.97;;;;;;;-0.67;63.97;100423.66;5055390;28;43007;-76
2022/02/28 03:19:19;;;;;;;6.23;4.37;;;;;;;-0.65;63.94;100421.94;5055351;28;41667;-75
2022/02/28 03:21:49;;;;;;;5.17;3.10;;;;;;;-0.68;63.92;100427.13;5055679;28;42470;-75
2022/02/28 03:24:17;;;;;;;4.87;3.73;;;;;;;-0.70;63.99;100423.63;5055508;28;38680;-76
2022/02/28 03:26:45;;;;;;;8.20;4.40;;;;;;;-0.71;64.38;100424.47;5072037;28;42563;-76
2022/02/28 03:29:15;;;;;;;5.63;4.33;;;;;;;-0.69;66.19;100414.09;5055312;28;43146;-75
2022/02/28 03:31:42;;;;;;;6.63;4.27;;;;;;;-0.70;66.78;100400.22;5072036;28;41946;-76
2022/02/28 03:34:11;;;;;;;6.10;4.50;;;;;;;-0.70;65.98;100408.00;5055221;28;39797;-76
2022/02/28 03:36:39;;;;;;;7.27;5.20;;;;;;;-0.70;66.09;100413.22;5048155;28;40719;-76
2022/02/28 03:39:14;;;;;;;8.73;4.67;;;;;;;-0.71;66.73;100406.28;5049119;28;42680;-76
2022/02/28 03:41:41;;;;;;;8.67;5.07;;;;;;;-0.72;66.69;100402.81;5035450;28;42332;-76
2022/02/28 03:44:11;;;;;;;6.87;5.23;;;;;;;-0.70;66.40;100409.75;5051855;28;40933;-76
2022/02/28 03:46:42;;;;;;;9.50;4.70;;;;;;;-0.72;66.90;100404.53;5035358;28;40585;-75
2022/02/28 03:49:17;;;;;;;7.07;4.00;;;;;;;-0.73;67.23;100410.59;5050067;28;42438;-75
2022/02/28 03:51:59;;;;;;;7.30;4.83;;;;;;;-0.76;68.18;100392.38;5035348;28;41048;-76
2022/02/28 03:54:45;;;;;;;6.13;4.40;;;;;;;-0.84;67.48;100394.03;5034882;28;42412;-76
2022/02/28 03:57:12;;;;;;;7.63;4.17;;;;;;;-0.78;67.13;100415.78;5034925;28;42300;-76
2022/02/28 03:59:40;;;;;;;5.93;4.40;;;;;;;-0.79;66.99;100429.63;5067239;28;42770;-74
2022/02/28 04:02:10;;;;;;;4.80;3.33;;;;;;;-0.81;66.64;100427.88;5052756;28;42280;-77
2022/02/28 04:04:43;;;;;;;9.17;4.20;;;;;;;-0.90;66.90;100414.81;5049563;28;40620;-75
2022/02/28 04:07:12;;;;;;;6.23;3.87;;;;;;;-0.84;66.58;100430.44;5034838;28;40927;-75
2022/02/28 04:09:41;;;;;;;6.53;4.10;;;;;;;-0.86;66.25;100421.75;5052386;28;42707;-77
2022/02/28 04:12:11;;;;;;;9.43;4.50;;;;;;;-0.98;66.30;100409.50;5051394;28;42381;-76
2022/02/28 04:14:39;;;;;;;7.03;4.93;;;;;;;-0.89;67.22;100424.34;5051303;28;40663;-77
2022/02/28 04:17:09;;;;;;;9.50;5.03;;;;;;;-0.95;66.37;100421.69;5034579;28;44134;-76
2022/02/28 04:19:42;;;;;;;8.57;4.80;;;;;;;-0.95;66.17;100421.69;5050900;28;41746;-75
2022/02/28 04:22:10;;;;;;;3.50;3.07;;;;;;;-0.98;65.95;100427.72;5034647;28;42658;-76
2022/02/28 04:24:45;;;;;;;5.70;3.97;;;;;;;-1.10;66.51;100402.47;5049407;28;40926;-76
2022/02/28 04:27:13;;;;;;;6.07;3.57;;;;;;;-1.11;66.59;100402.47;5034820;28;41014;-75
2022/02/28 04:29:42;;;;;;;7.10;3.93;;;;;;;-1.01;66.73;100414.72;5034229;28;42470;-76
2022/02/28 04:32:22;;;;;;;4.53;3.07;;;;;;;-1.05;66.81;100414.66;5035119;28;42191;-76
2022/02/28 04:34:59;;;;;;;8.87;5.10;;;;;;;-1.05;66.68;100420.72;5049408;28;40621;-76
2022/02/28 04:37:30;;;;;;;7.93;3.90;;;;;;;-1.05;66.55;100430.25;5034407;28;42194;-75
2022/02/28 04:39:59;;;;;;;7.20;4.23;;;;;;;-1.08;66.26;100426.75;5034287;28;43280;-76
2022/02/28 04:42:28;;;;;;;7.83;5.33;;;;;;;-1.10;66.08;100432.81;5033583;28;42733;-76
2022/02/28 04:44:56;;;;;;;6.10;4.40;;;;;;;-1.12;65.91;100431.94;5050839;28;41616;-75
2022/02/28 04:47:25;;;;;;;11.30;4.70;;;;;;;-1.14;66.04;100437.13;5034241;28;40702;-75
2022/02/28 04:50:12;;;;;;;9.53;4.90;;;;;;;-1.19;66.20;100425.78;5050976;28;43325;-76
2022/02/28 04:52:41;;;;;;;7.27;4.90;;;;;;;-1.29;66.45;100404.91;5050556;28;42135;-75
2022/02/28 04:55:13;;;;;;;6.23;3.57;;;;;;;-1.23;68.13;100404.94;5048831;28;39941;-76
2022/02/28 04:57:46;;;;;;;6.97;4.63;;;;;;;-1.20;68.84;100410.19;5047867;28;41400;-75
2022/02/28 05:00:28;;;;;;;6.77;4.03;;;;;;;-1.17;69.78;100408.50;5050598;28;42554;-75
2022/02/28 05:02:57;;;;;;;9.27;3.77;;;;;;;-1.18;69.02;100411.94;5050861;28;42323;-75
2022/02/28 05:05:26;;;;;;;8.07;4.60;;;;;;;-1.18;68.84;100414.53;5033965;28;40087;-75
2022/02/28 05:07:54;;;;;;;10.43;5.10;;;;;;;-1.20;68.21;100418.84;5033786;28;40304;-76
2022/02/28 05:10:22;;;;;;;4.63;3.40;;;;;;;-1.32;67.76;100400.53;5050076;28;41875;-75
2022/02/28 05:12:53;;;;;;;4.63;3.33;;;;;;;-1.27;67.56;100414.47;5047707;28;42548;-75
2022/02/28 05:15:21;;;;;;;5.57;3.27;;;;;;;-1.25;67.54;100428.34;5067212;28;39708;-76
2022/02/28 05:17:49;;;;;;;5.33;3.87;;;;;;;-1.26;67.46;100437.00;5033943;28;40191;-75
2022/02/28 05:20:20;;;;;;;7.13;4.33;;;;;;;-1.27;67.32;100434.38;5050284;28;42471;-76
2022/02/28 05:22:47;;;;;;;6.23;3.30;;;;;;;-1.42;67.76;100405.63;5033738;28;41287;-75
2022/02/28 05:25:15;;;;;;;7.10;5.40;;;;;;;-1.29;69.18;100420.50;5052956;28;39921;-75
2022/02/28 05:27:46;;;;;;;8.40;5.30;;;;;;;-1.33;69.53;100418.72;5053663;28;43185;-76
2022/02/28 05:30:16;;;;;;;7.70;4.77;;;;;;;-1.46;70.38;100402.13;5053567;28;42636;-76
2022/02/28 05:32:49;;;;;;;8.17;5.07;;;;;;;-1.36;70.09;100419.53;5053493;28;42660;-75
2022/02/28 05:35:28;;;;;;;7.17;4.87;;;;;;;-1.34;70.11;100423.03;5046354;28;40985;-75
2022/02/28 05:38:07;;;;;;;6.90;4.63;;;;;;;-1.35;70.52;100421.28;5063824;28;41716;-76
2022/02/28 05:40:38;;;;;;;7.17;4.67;;;;;;;-1.45;71.34;100403.88;5050047;28;43271;-75
2022/02/28 05:43:10;;;;;;;7.33;5.37;;;;;;;-1.44;71.42;100403.00;5033868;28;40793;-75
2022/02/28 05:45:37;;;;;;;7.23;4.33;;;;;;;-1.32;70.95;100431.72;5033306;28;38985;-76
2022/02/28 05:48:30;;;;;;;7.40;4.57;;;;;;;-1.40;70.92;100415.19;5064113;28;41688;-77
2022/02/28 05:51:00;;;;;;;6.43;4.37;;;;;;;-1.30;71.23;100431.75;5033333;28;42836;-76
2022/02/28 05:53:28;;;;;;;6.27;4.70;;;;;;;-1.29;70.69;100441.28;5049260;28;42142;-76
2022/02/28 05:55:56;;;;;;;5.63;4.30;;;;;;;-1.29;70.25;100439.56;5052611;28;40159;-76
2022/02/28 05:58:23;;;;;;;7.47;4.57;;;;;;;-1.30;69.84;100444.72;5052940;28;40790;-76
2022/02/28 06:00:51;;;;;;;7.10;4.27;;;;;;;-1.40;69.58;100437.69;5036657;28;42773;-75
2022/02/28 06:03:19;;;;;;;7.40;4.47;;;;;;;-1.35;69.52;100447.28;5054860;28;42358;-77
2022/02/28 06:05:47;;;;;;;6.27;4.10;;;;;;;-1.37;69.22;100451.59;5053078;28;39319;-75
2022/02/28 06:08:16;;;;;;;6.27;4.37;;;;;;;-1.39;69.81;100440.31;5036775;28;40755;-75
2022/02/28 06:10:43;;;;;;;4.93;4.13;;;;;;;-1.35;69.83;100454.19;5053372;28;43346;-76
2022/02/28 06:13:11;;;;;;;7.33;4.57;;;;;;;-1.40;70.12;100448.97;5036787;28;42634;-76
2022/02/28 06:15:41;;;;;;;4.83;4.13;;;;;;;-1.34;69.87;100453.34;5036678;28;40163;-77
2022/02/28 06:18:10;;;;;;;9.87;4.70;;;;;;;-1.34;69.71;100458.53;5036813;28;40711;-75
2022/02/28 06:20:37;;;;;;;8.43;4.60;;;;;;;-1.33;69.29;100461.16;5054157;28;42528;-74
2022/02/28 06:23:09;;;;;;;10.93;4.90;;;;;;;-1.31;69.24;100464.66;5036276;28;41396;-76
2022/02/28 06:25:38;;;;;;;8.23;5.03;;;;;;;-1.30;69.22;100466.41;5069634;28;43164;-75
2022/02/28 06:28:06;;;;;;;10.00;5.27;;;;;;;-1.30;69.05;100466.41;5053128;28;40707;-76
2022/02/28 06:30:33;;;;;;;9.53;5.43;;;;;;;-1.38;68.76;100447.25;5052867;28;41762;-75
2022/02/28 06:33:01;;;;;;;7.80;3.77;;;;;;;-1.25;68.57;100469.94;5036656;28;43834;-76
2022/02/28 06:35:29;;;;;;;6.97;4.03;;;;;;;-1.21;68.43;100474.28;5052885;28;38894;-75
2022/02/28 06:37:57;;;;;;;8.30;4.50;;;;;;;-1.23;68.37;100472.53;5052760;28;41722;-76
2022/02/28 06:40:25;;;;;;;6.43;3.90;;;;;;;-1.21;68.23;100482.09;5052776;28;41783;-75
2022/02/28 06:42:55;;;;;;;5.57;3.47;;;;;;;-1.26;68.13;100468.19;5054104;28;42398;-76
2022/02/28 06:45:24;;;;;;;7.63;4.80;;;;;;;-1.15;68.09;100482.16;5053994;28;40501;-75
2022/02/28 06:47:52;;;;;;;6.60;3.70;;;;;;;-1.11;67.79;100483.91;5052656;28;40191;-76
2022/02/28 06:50:21;;;;;;;4.83;3.60;;;;;;;-1.10;67.77;100477.88;5052691;28;43862;-75
2022/02/28 06:52:48;;;;;;;9.17;4.03;;;;;;;-1.11;67.82;100470.03;5069453;28;43359;-76
2022/02/28 06:55:16;;;;;;;8.70;4.47;;;;;;;-0.99;67.86;100488.38;5052758;28;40942;-76
2022/02/28 06:57:44;;;;;;;6.53;3.53;;;;;;;-1.36;68.26;100409.16;5035835;28;40800;-75
2022/02/28 07:00:15;;;;;;;7.00;4.07;;;;;;;-0.87;68.40;100482.44;5051887;28;42805;-76
2022/02/28 07:03:03;;;;;;;11.10;4.60;;;;;;;-0.79;68.50;100480.78;5069417;28;41528;-75
2022/02/28 07:05:31;;;;;;;6.17;3.90;;;;;;;-0.72;68.65;100482.56;5035347;28;39156;-75
2022/02/28 07:07:59;;;;;;;7.63;5.10;;;;;;;-0.62;68.84;100484.41;5035886;28;44133;-77
2022/02/28 07:10:26;;;;;;;9.90;6.20;;;;;;;-0.58;69.47;100477.47;5052502;28;42869;-74
2022/02/28 07:12:54;;;;;;;7.97;4.57;;;;;;;-0.45;68.99;100488.00;5052255;28;42117;-75
2022/02/28 07:15:25;;;;;;;6.50;4.03;;;;;;;-0.23;68.45;100477.75;5052175;28;40522;-76
2022/02/28 07:18:03;;;;;;;8.10;4.70;;;;;;;0.69;67.15;100498.22;5036251;28;42466;-75
2022/02/28 07:20:31;;;;;;;6.87;4.27;;;;;;;1.62;66.23;100508.81;5035483;28;42654;-77
2022/02/28 07:22:58;;;;;;;8.97;4.70;;;;;;;2.10;64.94;100497.47;5052184;28;42421;-75
2022/02/28 07:25:26;;;;;;;6.17;5.00;;;;;;;2.91;63.64;100513.75;5053564;28;39995;-76
2022/02/28 07:27:53;;;;;;;7.67;5.30;;;;;;;4.60;59.32;100542.03;5052463;28;40758;-75
2022/02/28 07:30:23;;;;;;;10.53;4.83;;;;;;;5.85;56.24;100553.44;5073234;28;41698;-76
2022/02/28 07:32:50;;;;;;;8.90;4.93;;;;;;;6.36;54.97;100556.97;5051895;28;42252;-76
2022/02/28 07:35:18;;;;;;;8.07;5.70;;;;;;;5.94;55.36;100563.81;5035401;28;39750;-77
2022/02/28 07:37:46;;;;;;;9.10;5.77;;;;;;;5.73;56.29;100558.88;5053036;28;42824;-75
2022/02/28 07:40:14;;;;;;;8.23;5.80;;;;;;;5.35;56.67;100544.56;5051636;28;43474;-75
2022/02/28 07:42:42;;;;;;;12.17;5.57;;;;;;;5.12;56.65;100528.25;5051950;28;43167;-77
2022/02/28 07:45:11;;;;;;;11.57;5.53;;;;;;;4.96;56.96;100547.72;5051852;28;40241;-76
2022/02/28 07:47:40;;;;;;;10.80;5.53;;;;;;;5.71;56.28;100555.41;5051895;28;41818;-77
2022/02/28 07:50:09;;;;;;;8.50;5.63;;;;;;;6.94;53.35;100573.41;5051561;28;41735;-76
2022/02/28 07:52:36;;;;;;;10.57;6.27;;;;;;;7.47;51.58;100573.13;5034977;28;41560;-75
2022/02/28 07:55:05;;;;;;;7.67;5.70;;;;;;;6.84;51.25;100597.28;5052073;28;40059;-75
2022/02/28 07:57:38;;;;;;;8.97;4.97;;;;;;;6.18;51.84;100590.66;5035276;28;41673;-76
2022/02/28 08:00:08;;;;;;;7.10;5.33;;;;;;;5.71;53.31;100576.44;5034705;28;42864;-76
2022/02/28 08:02:42;;;;;;;7.33;4.47;;;;;;;5.44;54.03;100566.38;5049734;28;42299;-75
2022/02/28 08:05:11;;;;;;;7.00;4.63;;;;;;;5.18;54.97;100559.72;5051491;28;39945;-76
2022/02/28 08:07:40;;;;;;;8.17;4.77;;;;;;;5.14;55.49;100557.13;5034797;28;40751;-75
2022/02/28 08:10:09;;;;;;;7.70;5.37;;;;;;;5.64;54.94;100570.41;5052383;28;42852;-76
2022/02/28 08:12:37;;;;;;;9.20;5.37;;;;;;;5.77;54.59;100560.59;5051513;28;42390;-75
2022/02/28 08:15:05;;;;;;;7.50;5.07;;;;;;;6.08;53.44;100566.22;5051357;28;40019;-76
2022/02/28 08:17:33;;;;;;;7.33;5.40;;;;;;;7.20;52.76;100568.47;5050756;28;42693;-75
2022/02/28 08:20:03;;;;;;;9.00;4.97;;;;;;;9.89;48.88;100589.44;5051171;28;43757;-75
2022/02/28 08:22:31;;;;;;;8.87;5.00;;;;;;;12.59;44.10;100611.16;5052302;28;43910;-76
2022/02/28 08:24:59;;;;;;;7.43;5.60;;;;;;;14.81;40.50;100630.88;5034084;28;39195;-77
2022/02/28 08:27:27;;;;;;;7.47;5.60;;;;;;;17.35;35.99;100643.97;5034492;28;42878;-74
2022/02/28 08:29:55;;;;;;;9.07;5.80;;;;;;;19.90;31.41;100670.69;5050677;28;41824;-78
2022/02/28 08:32:22;;;;;;;8.13;5.83;;;;;;;21.92;28.37;100673.13;5051147;28;41923;-77
2022/02/28 08:34:50;;;;;;;7.03;5.60;;;;;;;23.62;26.53;100677.66;5050946;28;40894;-74
2022/02/28 08:37:19;;;;;;;6.13;5.40;;;;;;;24.55;24.82;100680.13;5034278;28;42229;-75
2022/02/28 08:39:47;;;;;;;6.73;6.10;;;;;;;23.70;25.00;100675.16;5051681;28;42347;-75
2022/02/28 08:42:15;;;;;;;7.63;6.27;;;;;;;22.75;25.25;100685.09;5050898;28;42160;-75
2022/02/28 08:44:43;;;;;;;6.53;5.83;;;;;;;23.47;24.83;100677.13;5050902;28;40712;-75
2022/02/28 08:47:11;;;;;;;6.73;5.77;;;;;;;24.84;23.93;100677.44;5050779;28;42103;-75
2022/02/28 08:49:38;;;;;;;7.23;5.90;;;;;;;26.22;21.40;100690.34;5050746;28;42810;-75
2022/02/28 08:52:07;;;;;;;7.63;6.83;;;;;;;27.31;20.86;100703.75;5051776;28;43162;-75
2022/02/28 08:54:36;;;;;;;6.83;6.23;;;;;;;28.30;19.48;100706.03;5050282;28;40832;-76
2022/02/28 08:57:05;;;;;;;5.77;5.27;;;;;;;28.57;18.17;100705.75;5050636;28;41203;-76
2022/02/28 08:59:34;;;;;;;6.90;6.00;;;;;;;27.76;18.85;100695.38;5032385;28;41852;-75
2022/02/28 09:02:02;;;;;;;7.40;6.43;;;;;;;26.94;19.13;100711.25;5050498;28;42338;-75
2022/02/28 09:04:30;;;;;;;6.13;5.63;;;;;;;26.67;19.72;100696.69;5033995;28;39183;-75
2022/02/28 09:06:58;;;;;;;6.90;5.70;;;;;;;26.02;19.79;100698.59;5051736;28;42049;-75
2022/02/28 09:09:28;;;;;;;6.57;5.97;;;;;;;23.80;21.02;100688.72;5067601;28;20224;-75
2022/02/28 09:11:57;;;;;;;7.47;6.30;;;;;;;21.74;23.25;100681.75;5050446;28;42363;-75
2022/02/28 09:14:25;;;;;;;6.27;5.47;;;;;;;20.41;23.84;100669.56;5051475;28;39925;-74
2022/02/28 09:16:52;;;;;;;6.83;5.87;;;;;;;20.60;24.30;100670.91;5066870;28;42761;-75
2022/02/28 09:19:20;;;;;;;6.83;6.00;;;;;;;21.11;23.62;100669.63;5051288;28;42488;-75
2022/02/28 09:21:55;;;;;;;8.97;5.90;;;;;;;21.48;23.14;100666.78;5034522;28;42175;-75
2022/02/28 09:24:23;;;;;;;7.57;6.77;;;;;;;20.52;24.88;100659.88;5051085;28;39900;-76
2022/02/28 09:26:58;;;;;;;8.30;6.90;;;;;;;19.70;24.96;100658.69;5033444;28;43536;-75
2022/02/28 09:29:25;;;;;;;7.53;5.27;;;;;;;20.43;24.54;100659.56;5033643;28;42732;-75
2022/02/28 09:31:53;;;;;;;6.67;5.83;;;;;;;21.02;23.54;100659.53;5033117;28;40978;-77
2022/02/28 09:34:21;;;;;;;6.47;5.87;;;;;;;21.14;23.58;100655.88;5067675;28;39754;-74
2022/02/28 09:36:51;;;;;;;10.27;6.60;;;;;;;22.45;21.90;100669.63;5069855;28;41569;-78
2022/02/28 09:39:19;;;;;;;7.27;5.83;;;;;;;23.73;21.32;100666.75;5069552;28;42743;-75
2022/02/28 09:42:06;;;;;;;6.30;5.70;;;;;;;25.03;20.52;100675.59;5066622;28;42209;-76
2022/02/28 09:44:53;;;;;;;8.57;7.13;;;;;;;25.83;18.62;100689.69;5068867;28;41819;-76
2022/02/28 09:47:41;;;;;;;7.40;6.23;;;;;;;25.32;19.43;100689.13;5069791;28;41730;-76
2022/02/28 09:50:35;;;;;;;6.37;5.37;;;;;;;23.50;20.90;100676.88;5060910;28;44949;-76
2022/02/28 09:53:29;;;;;;;7.27;6.17;;;;;;;21.34;22.77;100672.38;5069728;28;43930;-75
2022/02/28 09:56:19;;;;;;;7.70;5.93;;;;;;;19.67;25.18;100643.63;5070172;28;40078;-75
2022/02/28 09:59:14;;;;;;;8.60;5.87;;;;;;;18.63;25.95;100649.13;5076113;28;41644;-76
2022/02/28 10:01:45;;;;;;;7.30;5.60;;;;;;;18.38;26.82;100638.28;5052799;28;43056;-76
2022/02/28 10:04:14;;;;;;;7.87;5.80;;;;;;;19.17;26.35;100627.50;5069554;28;43304;-76
2022/02/28 10:06:43;;;;;;;8.07;5.50;;;;;;;20.97;24.88;100642.88;5052918;28;38598;-76
2022/02/28 10:09:17;;;;;;;8.13;5.93;;;;;;;21.99;21.84;100669.88;5068921;28;42299;-76
2022/02/28 10:11:49;;;;;;;7.50;6.20;;;;;;;21.36;23.84;100616.53;5052740;28;44706;-76
2022/02/28 10:14:19;;;;;;;8.50;6.17;;;;;;;21.71;22.72;100663.09;5052438;28;44537;-76
2022/02/28 10:16:50;;;;;;;8.07;6.43;;;;;;;20.70;23.97;100650.38;5069513;28;40847;-76
2022/02/28 10:19:24;;;;;;;6.30;5.70;;;;;;;20.27;24.37;100658.09;5070279;28;42023;-75
2022/02/28 10:21:54;;;;;;;9.57;6.30;;;;;;;21.39;23.25;100659.38;5054617;28;42792;-77
2022/02/28 10:24:31;;;;;;;7.33;6.13;;;;;;;22.13;23.62;100652.56;5053650;28;41459;-76
2022/02/28 10:27:08;;;;;;;7.67;6.13;;;;;;;23.34;21.21;100672.94;5070475;28;39039;-76
2022/02/28 10:29:57;;;;;;;7.63;6.20;;;;;;;24.84;19.96;100680.13;5068939;28;42120;-76
2022/02/28 10:32:48;;;;;;;6.53;5.93;;;;;;;25.94;19.59;100684.94;5069118;28;44263;-76
2022/02/28 10:38:34;;;;;;;6.80;6.20;;;;;;;26.84;17.83;100689.50;5069531;28;40767;-76
2022/02/28 10:41:03;;;;;;;6.43;5.73;;;;;;;26.51;18.51;100669.31;5053509;28;40951;-75
2022/02/28 10:43:34;;;;;;;6.20;5.67;;;;;;;26.68;18.94;100664.91;5055753;28;43638;-75
2022/02/28 10:46:16;;;;;;;7.63;6.30;;;;;;;27.20;18.12;100665.88;5073319;28;43234;-75
2022/02/28 10:48:56;;;;;;;6.00;5.43;;;;;;;27.38;17.11;100672.16;5070944;28;40020;-76
2022/02/28 10:51:24;;;;;;;7.97;6.13;;;;;;;27.52;17.59;100652.50;5072630;28;42730;-76
2022/02/28 10:54:07;;;;;;;6.13;5.47;;;;;;;28.00;18.08;100648.34;5054550;28;44204;-76
2022/02/28 10:56:47;;;;;;;7.40;6.40;;;;;;;28.48;16.86;100654.97;5069166;28;42453;-76
2022/02/28 10:59:15;;;;;;;7.10;6.47;;;;;;;28.88;16.95;100652.31;5073035;28;40737;-76
2022/02/28 11:01:49;;;;;;;7.33;6.10;;;;;;;29.91;16.06;100647.03;5055723;28;41744;-77
2022/02/28 11:04:29;;;;;;;6.75;5.88;;;;;;;30.94;15.89;100653.94;5071887;28;44239;-76
2022/02/28 11:06:57;;;;;;;6.63;5.97;;;;;;;31.75;13.99;100653.22;5069130;28;42868;-77
2022/02/28 11:09:34;;;;;;;6.65;6.05;;;;;;;32.01;14.06;100643.66;5055183;28;38976;-77
2022/02/28 11:12:29;;;;;;;6.17;5.60;;;;;;;32.44;14.87;100634.47;5069250;28;42779;-77
2022/02/28 11:15:00;;;;;;;6.47;5.85;;;;;;;33.32;13.66;100646.09;5067596;28;42670;-76
2022/02/28 11:17:31;;;;;;;5.88;5.03;;;;;;;34.19;12.93;100646.41;5055247;28;43031;-77
2022/02/28 11:20:00;;;;;;;6.05;5.45;;;;;;;34.74;12.85;100644.47;5055360;28;40313;-77
2022/02/28 11:22:28;;;;;;;6.00;5.50;;;;;;;34.85;12.95;100647.50;5073176;28;42680;-77
2022/02/28 11:24:57;;;;;;;5.72;5.15;;;;;;;34.14;13.57;100644.28;5073054;28;43490;-77
2022/02/28 11:27:26;;;;;;;6.35;5.80;;;;;;;34.31;12.70;100628.28;5073022;28;43183;-76
2022/02/28 11:29:56;;;;;;;5.47;4.97;;;;;;;34.96;12.88;100637.75;5072033;28;41748;-77
2022/02/28 11:32:25;;;;;;;6.18;5.68;;;;;;;34.94;11.78;100643.47;5068676;28;41291;-77
2022/02/28 11:35:32;;;;;;;6.20;5.70;;;;;;;34.69;12.10;100636.00;5054764;28;41961;-77
2022/02/28 11:38:00;;;;;;;6.47;5.78;;;;;;;34.71;12.36;100625.63;5071648;28;44210;-76
2022/02/28 11:40:31;;;;;;;6.20;5.60;;;;;;;34.44;13.16;100620.06;5072214;28;40954;-77
2022/02/28 11:43:10;;;;;;;5.93;5.33;;;;;;;33.35;13.56;100610.00;5071778;28;42076;-76
2022/02/28 11:45:53;;;;;;;6.67;5.40;;;;;;;31.77;14.30;100595.47;5072218;28;42842;-75